sensor_id;sensor_type;location;lat;lon;timestamp;temperature;humidity
44731;DHT22;30458;47.448;19.032;2023-09-18T00:05:01;21.00;99.90
44731;DHT22;30458;47.448;19.032;2023-09-18T00:15:05;20.80;99.90
44731;DHT22;30458;47.448;19.032;2023-09-18T00:25:06;20.70;99.90
44731;DHT22;30458;47.448;19.032;2023-09-18T00:35:07;20.70;99.90
44731;DHT22;30458;47.448;19.032;2023-09-18T00:45:10;20.60;99.90
44731;DHT22;30458;47.448;19.032;2023-09-18T00:55:11;20.50;99.90
44731;DHT22;30458;47.448;19.032;2023-09-18T01:05:15;20.50;99.90
44731;DHT22;30458;47.448;19.032;2023-09-18T01:15:32;20.50;99.90
44731;DHT22;30458;47.448;19.032;2023-09-18T01:25:35;20.30;99.90
44731;DHT22;30458;47.448;19.032;2023-09-18T01:35:39;20.30;99.90
44731;DHT22;30458;47.448;19.032;2023-09-18T01:45:41;20.40;99.90
44731;DHT22;30458;47.448;19.032;2023-09-18T01:55:45;20.40;99.90
44731;DHT22;30458;47.448;19.032;2023-09-18T02:05:45;20.30;99.90
44731;DHT22;30458;47.448;19.032;2023-09-18T02:15:46;20.30;99.90
44731;DHT22;30458;47.448;19.032;2023-09-18T02:25:58;20.40;99.90
44731;DHT22;30458;47.448;19.032;2023-09-18T02:35:59;20.30;99.90
44731;DHT22;30458;47.448;19.032;2023-09-18T02:46:00;20.40;99.90
44731;DHT22;30458;47.448;19.032;2023-09-18T02:56:01;20.30;99.90
44731;DHT22;30458;47.448;19.032;2023-09-18T03:06:03;20.30;99.90
44731;DHT22;30458;47.448;19.032;2023-09-18T03:16:05;20.20;99.90
44731;DHT22;30458;47.448;19.032;2023-09-18T03:26:10;20.10;99.90
44731;DHT22;30458;47.448;19.032;2023-09-18T03:36:14;20.00;99.90
44731;DHT22;30458;47.448;19.032;2023-09-18T03:46:15;19.80;99.90
44731;DHT22;30458;47.448;19.032;2023-09-18T03:56:23;19.80;99.90
44731;DHT22;30458;47.448;19.032;2023-09-18T04:06:24;19.70;99.90
44731;DHT22;30458;47.448;19.032;2023-09-18T04:16:26;19.50;99.90
44731;DHT22;30458;47.448;19.032;2023-09-18T04:26:28;19.50;99.90
44731;DHT22;30458;47.448;19.032;2023-09-18T04:36:33;19.50;99.90
44731;DHT22;30458;47.448;19.032;2023-09-18T04:46:34;19.60;99.90
44731;DHT22;30458;47.448;19.032;2023-09-18T04:56:36;19.60;99.90
44731;DHT22;30458;47.448;19.032;2023-09-18T05:06:40;20.00;99.90
44731;DHT22;30458;47.448;19.032;2023-09-18T05:16:42;20.50;99.90
44731;DHT22;30458;47.448;19.032;2023-09-18T05:26:43;21.20;99.90
44731;DHT22;30458;47.448;19.032;2023-09-18T05:36:43;21.90;99.90
44731;DHT22;30458;47.448;19.032;2023-09-18T05:46:46;22.10;99.90
44731;DHT22;30458;47.448;19.032;2023-09-18T05:56:50;22.20;99.90
44731;DHT22;30458;47.448;19.032;2023-09-18T06:06:54;22.80;99.90
44731;DHT22;30458;47.448;19.032;2023-09-18T06:16:57;23.30;99.50
44731;DHT22;30458;47.448;19.032;2023-09-18T06:27:00;24.60;97.90
44731;DHT22;30458;47.448;19.032;2023-09-18T06:37:01;25.60;96.30
44731;DHT22;30458;47.448;19.032;2023-09-18T06:47:04;25.50;96.00
44731;DHT22;30458;47.448;19.032;2023-09-18T06:57:05;26.50;95.10
44731;DHT22;30458;47.448;19.032;2023-09-18T07:07:09;27.70;94.10
44731;DHT22;30458;47.448;19.032;2023-09-18T07:17:12;28.30;92.80
44731;DHT22;30458;47.448;19.032;2023-09-18T07:27:13;29.30;91.90
44731;DHT22;30458;47.448;19.032;2023-09-18T07:37:16;30.40;90.70
44731;DHT22;30458;47.448;19.032;2023-09-18T07:47:23;31.20;89.30
44731;DHT22;30458;47.448;19.032;2023-09-18T07:57:26;31.90;89.20
44731;DHT22;30458;47.448;19.032;2023-09-18T08:07:32;30.90;89.30
44731;DHT22;30458;47.448;19.032;2023-09-18T08:17:33;30.80;89.60
44731;DHT22;30458;47.448;19.032;2023-09-18T08:27:34;31.90;88.70
44731;DHT22;30458;47.448;19.032;2023-09-18T08:37:40;31.70;88.70
44731;DHT22;30458;47.448;19.032;2023-09-18T08:47:44;31.40;89.40
44731;DHT22;30458;47.448;19.032;2023-09-18T08:57:48;28.90;91.30
44731;DHT22;30458;47.448;19.032;2023-09-18T09:07:50;27.70;92.70
44731;DHT22;30458;47.448;19.032;2023-09-18T09:18:06;27.10;93.70
44731;DHT22;30458;47.448;19.032;2023-09-18T09:28:09;27.00;93.60
44731;DHT22;30458;47.448;19.032;2023-09-18T09:38:12;26.40;95.10
44731;DHT22;30458;47.448;19.032;2023-09-18T09:48:18;25.90;95.00
44731;DHT22;30458;47.448;19.032;2023-09-18T09:58:26;25.60;95.60
44731;DHT22;30458;47.448;19.032;2023-09-18T10:08:31;25.90;95.60
44731;DHT22;30458;47.448;19.032;2023-09-18T10:28:38;26.10;95.50
44731;DHT22;30458;47.448;19.032;2023-09-18T10:38:42;25.90;95.50
44731;DHT22;30458;47.448;19.032;2023-09-18T10:48:44;26.20;95.90
44731;DHT22;30458;47.448;19.032;2023-09-18T10:58:55;26.40;95.00
44731;DHT22;30458;47.448;19.032;2023-09-18T11:09:02;26.40;95.50
44731;DHT22;30458;47.448;19.032;2023-09-18T11:19:11;26.40;95.10
44731;DHT22;30458;47.448;19.032;2023-09-18T11:29:24;26.50;94.90
44731;DHT22;30458;47.448;19.032;2023-09-18T11:39:41;26.70;94.80
44731;DHT22;30458;47.448;19.032;2023-09-18T11:50:10;26.80;94.20
44731;DHT22;30458;47.448;19.032;2023-09-18T12:00:19;26.90;93.80
44731;DHT22;30458;47.448;19.032;2023-09-18T12:10:23;26.80;93.90
44731;DHT22;30458;47.448;19.032;2023-09-18T12:20:29;27.00;93.50
44731;DHT22;30458;47.448;19.032;2023-09-18T12:30:30;27.30;92.80
44731;DHT22;30458;47.448;19.032;2023-09-18T12:40:35;27.20;92.80
44731;DHT22;30458;47.448;19.032;2023-09-18T12:50:36;27.20;92.70
44731;DHT22;30458;47.448;19.032;2023-09-18T13:00:47;27.30;92.60
44731;DHT22;30458;47.448;19.032;2023-09-18T13:10:52;27.20;92.30
44731;DHT22;30458;47.448;19.032;2023-09-18T13:20:54;27.40;92.60
44731;DHT22;30458;47.448;19.032;2023-09-18T13:30:54;27.50;92.10
44731;DHT22;30458;47.448;19.032;2023-09-18T13:40:55;27.50;92.20
44731;DHT22;30458;47.448;19.032;2023-09-18T13:50:58;27.70;92.30
44731;DHT22;30458;47.448;19.032;2023-09-18T14:00:59;27.70;92.40
44731;DHT22;30458;47.448;19.032;2023-09-18T14:11:00;27.60;92.00
44731;DHT22;30458;47.448;19.032;2023-09-18T14:21:03;27.50;92.20
44731;DHT22;30458;47.448;19.032;2023-09-18T14:31:04;27.50;92.00
44731;DHT22;30458;47.448;19.032;2023-09-18T14:41:06;27.60;91.70
44731;DHT22;30458;47.448;19.032;2023-09-18T14:51:07;27.50;91.70
44731;DHT22;30458;47.448;19.032;2023-09-18T15:01:13;27.50;91.50
44731;DHT22;30458;47.448;19.032;2023-09-18T15:11:14;27.50;91.40
44731;DHT22;30458;47.448;19.032;2023-09-18T15:21:17;27.50;91.40
44731;DHT22;30458;47.448;19.032;2023-09-18T15:31:18;27.50;91.20
44731;DHT22;30458;47.448;19.032;2023-09-18T15:41:22;27.50;91.30
44731;DHT22;30458;47.448;19.032;2023-09-18T15:51:23;27.50;91.20
44731;DHT22;30458;47.448;19.032;2023-09-18T16:01:26;27.50;91.10
44731;DHT22;30458;47.448;19.032;2023-09-18T16:11:29;27.40;91.20
44731;DHT22;30458;47.448;19.032;2023-09-18T16:21:30;27.30;91.10
44731;DHT22;30458;47.448;19.032;2023-09-18T16:31:32;27.20;91.00
44731;DHT22;30458;47.448;19.032;2023-09-18T16:41:34;27.10;91.20
44731;DHT22;30458;47.448;19.032;2023-09-18T16:51:35;26.90;91.50
44731;DHT22;30458;47.448;19.032;2023-09-18T17:01:36;26.80;92.20
44731;DHT22;30458;47.448;19.032;2023-09-18T17:11:40;26.50;92.50
44731;DHT22;30458;47.448;19.032;2023-09-18T17:21:41;26.40;92.90
44731;DHT22;30458;47.448;19.032;2023-09-18T17:31:42;26.20;93.00
44731;DHT22;30458;47.448;19.032;2023-09-18T17:41:45;26.10;93.10
44731;DHT22;30458;47.448;19.032;2023-09-18T17:51:48;26.00;93.00
44731;DHT22;30458;47.448;19.032;2023-09-18T18:01:51;25.90;92.50
44731;DHT22;30458;47.448;19.032;2023-09-18T18:11:52;25.80;92.50
44731;DHT22;30458;47.448;19.032;2023-09-18T18:21:55;25.80;92.40
44731;DHT22;30458;47.448;19.032;2023-09-18T18:31:57;25.70;92.20
44731;DHT22;30458;47.448;19.032;2023-09-18T18:41:59;25.70;92.10
44731;DHT22;30458;47.448;19.032;2023-09-18T18:52:00;25.60;92.20
44731;DHT22;30458;47.448;19.032;2023-09-18T19:02:03;25.50;92.20
44731;DHT22;30458;47.448;19.032;2023-09-18T19:12:07;25.40;92.20
44731;DHT22;30458;47.448;19.032;2023-09-18T19:22:08;25.40;92.40
44731;DHT22;30458;47.448;19.032;2023-09-18T19:32:09;25.40;92.20
44731;DHT22;30458;47.448;19.032;2023-09-18T19:42:13;25.40;92.10
44731;DHT22;30458;47.448;19.032;2023-09-18T19:52:16;25.30;92.20
44731;DHT22;30458;47.448;19.032;2023-09-18T20:02:18;25.20;92.20
44731;DHT22;30458;47.448;19.032;2023-09-18T20:12:21;25.10;92.30
44731;DHT22;30458;47.448;19.032;2023-09-18T20:22:22;25.00;92.70
44731;DHT22;30458;47.448;19.032;2023-09-18T20:32:23;24.90;93.20
44731;DHT22;30458;47.448;19.032;2023-09-18T20:42:23;24.80;93.60
44731;DHT22;30458;47.448;19.032;2023-09-18T20:52:26;24.70;94.10
44731;DHT22;30458;47.448;19.032;2023-09-18T21:02:27;24.70;94.50
44731;DHT22;30458;47.448;19.032;2023-09-18T21:12:30;24.80;94.70
44731;DHT22;30458;47.448;19.032;2023-09-18T21:22:31;24.80;94.90
44731;DHT22;30458;47.448;19.032;2023-09-18T21:32:33;24.80;95.20
44731;DHT22;30458;47.448;19.032;2023-09-18T21:42:36;24.80;95.20
44731;DHT22;30458;47.448;19.032;2023-09-18T21:52:37;24.80;94.80
44731;DHT22;30458;47.448;19.032;2023-09-18T22:02:38;24.70;94.80
44731;DHT22;30458;47.448;19.032;2023-09-18T22:12:39;24.60;95.00
44731;DHT22;30458;47.448;19.032;2023-09-18T22:22:40;24.50;95.00
44731;DHT22;30458;47.448;19.032;2023-09-18T22:32:40;24.40;95.10
44731;DHT22;30458;47.448;19.032;2023-09-18T23:03:28;24.20;95.50
44731;DHT22;30458;47.448;19.032;2023-09-18T23:13:31;24.10;95.70
44731;DHT22;30458;47.448;19.032;2023-09-18T23:23:34;24.00;95.80
44731;DHT22;30458;47.448;19.032;2023-09-18T23:33:36;23.90;96.00
44731;DHT22;30458;47.448;19.032;2023-09-18T23:43:40;23.80;96.00
44731;DHT22;30458;47.448;19.032;2023-09-18T23:53:43;23.70;96.30
